createdAt,value
2019-04-28T00:01:16.339Z,96787.42
2019-04-28T00:03:46.832Z,96786.58
2019-04-28T00:06:17.314Z,96784.58
2019-04-28T00:08:47.717Z,96787.19
2019-04-28T00:11:18.203Z,96782.23
2019-04-28T00:13:48.648Z,96786.14
2019-04-28T00:16:20.978Z,96780.94
2019-04-28T00:18:51.713Z,96780.98
2019-04-28T00:21:34.481Z,96780.73
2019-04-28T00:24:28.614Z,96774.91
2019-04-28T00:27:01.851Z,96768.87
2019-04-28T00:29:40.772Z,96758.80
2019-04-28T00:32:04.894Z,96752.95
2019-04-28T00:34:35.805Z,96760.76
2019-04-28T00:37:16.610Z,96759.45
2019-04-28T00:39:47.122Z,96751.34
2019-04-28T00:42:17.805Z,96753.23
2019-04-28T00:44:48.195Z,96749.11
2019-04-28T00:47:18.696Z,96750.89
2019-04-28T00:49:49.137Z,96750.21
2019-04-28T00:52:22.229Z,96754.23
2019-04-28T00:54:52.932Z,96746.56
2019-04-28T00:57:23.474Z,96752.38
2019-04-28T00:59:58.259Z,96751.42
2019-04-28T01:02:42.662Z,96749.89
2019-04-28T01:05:14.984Z,96751.67
2019-04-28T01:07:45.463Z,96752.60
2019-04-28T01:10:16.295Z,96761.02
2019-04-28T01:12:46.952Z,96773.38
2019-04-28T01:15:27.274Z,96769.10
2019-04-28T01:18:04.621Z,96777.52
2019-04-28T01:20:35.102Z,96784.37
2019-04-28T01:23:05.525Z,96793.61
2019-04-28T01:25:35.946Z,96797.95
2019-04-28T01:28:06.405Z,96797.55
2019-04-28T01:31:04.955Z,96810.16
2019-04-28T01:33:57.550Z,96822.17
2019-04-28T01:36:27.950Z,96829.23
2019-04-28T01:38:59.900Z,96828.59
2019-04-28T01:41:30.623Z,96840.41
2019-04-28T01:44:01.016Z,96842.44
2019-04-28T01:46:31.685Z,96836.96
2019-04-28T01:49:02.281Z,96837.62
2019-04-28T01:51:32.837Z,96840.63
2019-04-28T01:54:03.524Z,96838.68
2019-04-28T01:56:34.148Z,96842.89
2019-04-28T01:59:04.895Z,96843.61
2019-04-28T02:01:35.531Z,96835.50
2019-04-28T02:04:06.431Z,96830.87
2019-04-28T02:06:37.180Z,96828.72
2019-04-28T02:09:10.583Z,96824.20
2019-04-28T02:11:41.354Z,96822.16
2019-04-28T02:14:11.709Z,96818.52
2019-04-28T02:16:42.170Z,96818.80
2019-04-28T02:19:12.575Z,96816.50
2019-04-28T02:22:07.357Z,96812.43
2019-04-28T02:24:37.852Z,96819.98
2019-04-28T02:27:10.407Z,96820.43
2019-04-28T02:29:41.750Z,96830.05
2019-04-28T02:32:13.203Z,96829.33
2019-04-28T02:34:43.766Z,96831.88
2019-04-28T02:37:14.229Z,96832.27
2019-04-28T02:39:44.673Z,96837.63
2019-04-28T02:42:15.188Z,96837.81
2019-04-28T02:44:45.543Z,96837.33
2019-04-28T02:47:15.896Z,96830.80
2019-04-28T02:50:11.351Z,96839.39
2019-04-28T02:53:02.620Z,96836.38
2019-04-28T02:55:33.474Z,96840.66
2019-04-28T02:58:03.917Z,96841.05
2019-04-28T03:00:34.435Z,96837.11
2019-04-28T03:03:04.859Z,96834.03
2019-04-28T03:05:35.288Z,96834.74
2019-04-28T03:08:05.834Z,96835.20
2019-04-28T03:10:36.348Z,96840.41
2019-04-28T03:13:06.870Z,96839.80
2019-04-28T03:15:37.289Z,96836.39
2019-04-28T03:18:07.771Z,96840.75
2019-04-28T03:20:38.154Z,96838.60
2019-04-28T03:23:11.554Z,96837.92
2019-04-28T03:26:01.456Z,96838.09
2019-04-28T03:28:45.071Z,96837.00
2019-04-28T03:32:01.079Z,96840.94
2019-04-28T03:34:05.661Z,96836.28
2019-04-28T03:36:36.091Z,96838.11
2019-04-28T03:39:10.862Z,96832.02
2019-04-28T03:41:40.664Z,96829.23
2019-04-28T03:44:11.575Z,96831.72
2019-04-28T03:46:51.179Z,96826.14
2019-04-28T03:49:35.065Z,96828.09
2019-04-28T03:52:06.924Z,96820.30
2019-04-28T03:54:37.356Z,96816.97
2019-04-28T03:57:07.778Z,96821.03
2019-04-28T03:59:41.330Z,96822.17
2019-04-28T04:02:11.364Z,96816.23
2019-04-28T04:04:42.047Z,96821.30
2019-04-28T04:07:12.493Z,96818.70
2019-04-28T04:09:52.935Z,96822.51
2019-04-28T04:12:41.196Z,96824.24
2019-04-28T04:15:30.913Z,96815.50
2019-04-28T04:18:14.253Z,96809.92
2019-04-28T04:20:44.756Z,96810.48
2019-04-28T04:23:15.197Z,96804.67
2019-04-28T04:25:45.629Z,96813.60
2019-04-28T04:28:16.137Z,96817.76
2019-04-28T04:30:46.418Z,96819.00
2019-04-28T04:33:16.858Z,96823.08
2019-04-28T04:35:47.274Z,96820.82
2019-04-28T04:38:17.608Z,96816.58
2019-04-28T04:40:48.065Z,96813.59
2019-04-28T04:43:23.031Z,96811.47
2019-04-28T04:45:54.006Z,96810.61
2019-04-28T04:48:24.446Z,96812.65
2019-04-28T04:50:54.757Z,96813.47
2019-04-28T04:53:25.233Z,96814.42
2019-04-28T04:55:55.645Z,96812.12
2019-04-28T04:58:25.966Z,96807.88
2019-04-28T05:01:05.021Z,96806.32
2019-04-28T05:03:39.402Z,96806.11
2019-04-28T05:06:29.835Z,96803.51
2019-04-28T05:09:00.320Z,96805.67
2019-04-28T05:11:30.769Z,96804.45
2019-04-28T05:14:01.191Z,96795.61
2019-04-28T05:16:31.724Z,96793.30
2019-04-28T05:19:02.242Z,96790.97
2019-04-28T05:21:33.458Z,96787.92
2019-04-28T05:24:17.470Z,96781.93
2019-04-28T05:26:49.625Z,96785.05
2019-04-28T05:29:26.487Z,96781.05
2019-04-28T05:31:54.924Z,96782.45
2019-04-28T05:34:25.078Z,96785.18
2019-04-28T05:36:55.418Z,96782.94
2019-04-28T05:39:25.824Z,96779.44
2019-04-28T05:41:56.287Z,96776.73
2019-04-28T05:44:26.751Z,96776.66
2019-04-28T05:46:57.193Z,96786.33
2019-04-28T05:49:49.605Z,96788.52
2019-04-28T05:52:40.188Z,96795.72
2019-04-28T05:55:16.303Z,96798.34
2019-04-28T05:57:55.611Z,96799.37
2019-04-28T06:00:49.780Z,96801.63
2019-04-28T06:03:20.767Z,96799.98
2019-04-28T06:05:51.187Z,96804.30
2019-04-28T06:08:52.421Z,96806.48
2019-04-28T06:11:33.373Z,96808.66
2019-04-28T06:14:03.791Z,96813.41
2019-04-28T06:16:34.225Z,96807.91
2019-04-28T06:19:04.699Z,96801.35
2019-04-28T06:21:35.096Z,96804.60
2019-04-28T06:24:05.528Z,96799.37
2019-04-28T06:26:36.030Z,96801.99
2019-04-28T06:29:06.631Z,96798.77
2019-04-28T06:31:37.062Z,96812.30
2019-04-28T06:34:07.477Z,96813.30
2019-04-28T06:36:37.947Z,96806.94
2019-04-28T06:39:09.848Z,96808.58
2019-04-28T06:41:40.211Z,96812.84
2019-04-28T06:44:10.644Z,96813.36
2019-04-28T06:46:41.097Z,96815.81
2019-04-28T06:49:11.432Z,96818.77
2019-04-28T06:51:41.902Z,96814.34
2019-04-28T06:54:12.366Z,96808.48
2019-04-28T06:56:42.864Z,96813.55
2019-04-28T06:59:13.183Z,96808.63
2019-04-28T07:01:43.585Z,96814.16
2019-04-28T07:04:14.055Z,96810.66
2019-04-28T07:06:44.439Z,96807.14
2019-04-28T07:09:14.864Z,96806.20
2019-04-28T07:11:45.278Z,96804.64
2019-04-28T07:14:15.704Z,96799.48
2019-04-28T07:16:46.147Z,96798.34
2019-04-28T07:19:16.503Z,96809.88
2019-04-28T07:21:53.199Z,96803.41
2019-04-28T07:24:23.622Z,96807.21
2019-04-28T07:26:54.071Z,96809.57
2019-04-28T07:29:24.483Z,96799.89
2019-04-28T07:31:54.976Z,96803.23
2019-04-28T07:34:25.437Z,96803.78
2019-04-28T07:36:55.931Z,96803.03
2019-04-28T07:39:26.401Z,96809.45
2019-04-28T07:41:56.839Z,96813.73
2019-04-28T07:44:27.268Z,96809.17
2019-04-28T07:46:57.791Z,96805.86
2019-04-28T07:49:28.055Z,96801.09
2019-04-28T07:52:23.589Z,96808.88
2019-04-28T07:54:54.185Z,96809.08
2019-04-28T07:57:25.016Z,96809.30
2019-04-28T07:59:55.447Z,96799.52
2019-04-28T08:02:25.764Z,96809.75
2019-04-28T08:04:56.213Z,96803.41
2019-04-28T08:07:26.640Z,96792.74
2019-04-28T08:09:57.149Z,96799.50
2019-04-28T08:12:27.598Z,96792.53
2019-04-28T08:14:58.408Z,96782.42
2019-04-28T08:17:28.909Z,96790.57
2019-04-28T08:19:59.256Z,96798.31
2019-04-28T08:22:29.697Z,96797.11
2019-04-28T08:25:00.136Z,96787.86
2019-04-28T08:27:30.575Z,96784.25
2019-04-28T08:30:00.956Z,96784.22
2019-04-28T08:32:56.373Z,96772.45
2019-04-28T08:35:26.869Z,96787.77
2019-04-28T08:37:57.414Z,96787.80
2019-04-28T08:40:27.827Z,96777.60
2019-04-28T08:42:58.255Z,96779.11
2019-04-28T08:45:30.699Z,96780.14
2019-04-28T08:48:01.199Z,96783.10
2019-04-28T08:50:31.593Z,96780.02
2019-04-28T08:53:02.225Z,96783.38
2019-04-28T08:55:32.724Z,96793.98
2019-04-28T08:58:03.193Z,96796.18
2019-04-28T09:00:33.588Z,96796.26
2019-04-28T09:03:04.121Z,96797.03
2019-04-28T09:05:34.608Z,96788.52
2019-04-28T09:08:06.840Z,96789.12
2019-04-28T09:10:37.370Z,96794.88
2019-04-28T09:13:08.004Z,96799.43
2019-04-28T09:15:38.795Z,96799.31
2019-04-28T09:18:09.287Z,96799.09
2019-04-28T09:20:39.736Z,96800.99
2019-04-28T09:23:10.271Z,96803.17
2019-04-28T09:25:40.680Z,96796.59
2019-04-28T09:28:11.223Z,96802.09
2019-04-28T09:30:42.053Z,96797.23
2019-04-28T09:33:12.470Z,96793.38
2019-04-28T09:35:42.919Z,96783.53
2019-04-28T09:38:13.502Z,96781.98
2019-04-28T09:40:43.927Z,96779.59
2019-04-28T09:43:33.254Z,96785.34
2019-04-28T09:46:11.193Z,96780.56
2019-04-28T09:48:41.829Z,96779.45
2019-04-28T09:51:12.194Z,96788.17
2019-04-28T09:53:42.809Z,96787.14
2019-04-28T09:56:13.343Z,96776.70
2019-04-28T09:58:43.790Z,96787.33
2019-04-28T10:01:14.262Z,96794.27
2019-04-28T10:03:44.691Z,96788.05
2019-04-28T10:06:15.167Z,96780.12
2019-04-28T10:08:45.696Z,96788.41
2019-04-28T10:11:30.075Z,96787.80
2019-04-28T10:13:51.197Z,96782.03
2019-04-28T10:16:23.435Z,96785.03
2019-04-28T10:18:53.873Z,96785.76
2019-04-28T10:21:24.367Z,96777.84
2019-04-28T10:23:54.852Z,96777.00
2019-04-28T10:26:25.331Z,96786.23
2019-04-28T10:28:55.748Z,96779.75
2019-04-28T10:31:26.169Z,96781.34
2019-04-28T10:33:59.936Z,96776.91
2019-04-28T10:36:33.555Z,96780.57
2019-04-28T10:39:26.894Z,96778.02
2019-04-28T10:42:05.922Z,96776.37
2019-04-28T10:44:39.935Z,96774.83
2019-04-28T10:47:11.367Z,96770.84
2019-04-28T10:49:41.797Z,96772.71
2019-04-28T10:52:12.529Z,96768.66
2019-04-28T10:54:43.035Z,96769.40
2019-04-28T10:57:13.612Z,96765.12
2019-04-28T10:59:44.060Z,96756.47
2019-04-28T11:02:14.580Z,96764.28
2019-04-28T11:05:08.285Z,96766.16
2019-04-28T11:07:32.168Z,96758.52
2019-04-28T11:10:21.311Z,96751.75
2019-04-28T11:12:51.987Z,96747.89
2019-04-28T11:15:29.965Z,96744.39
2019-04-28T11:18:02.133Z,96741.26
2019-04-28T11:20:33.421Z,96738.13
2019-04-28T11:23:03.907Z,96740.45
2019-04-28T11:25:34.366Z,96737.03
2019-04-28T11:28:05.067Z,96727.97
2019-04-28T11:30:35.493Z,96729.47
2019-04-28T11:33:24.793Z,96726.94
2019-04-28T11:35:55.539Z,96730.28
2019-04-28T11:38:26.006Z,96726.45
2019-04-28T11:40:56.487Z,96739.65
2019-04-28T11:43:27.019Z,96738.29
2019-04-28T11:45:57.575Z,96743.06
2019-04-28T11:48:28.126Z,96733.94
2019-04-28T11:50:58.450Z,96745.47
2019-04-28T11:53:28.934Z,96738.61
2019-04-28T11:55:59.423Z,96737.89
2019-04-28T11:58:29.750Z,96740.70
2019-04-28T12:01:00.232Z,96738.45
2019-04-28T12:03:32.088Z,96733.41
2019-04-28T12:06:03.213Z,96740.25
2019-04-28T12:08:33.635Z,96734.80
2019-04-28T12:11:12.533Z,96735.67
2019-04-28T12:14:03.137Z,96739.71
2019-04-28T12:16:58.601Z,96728.94
2019-04-28T12:19:40.042Z,96718.20
2019-04-28T12:22:10.636Z,96723.97
2019-04-28T12:24:40.998Z,96712.44
2019-04-28T12:27:11.484Z,96718.44
2019-04-28T12:29:41.969Z,96715.31
2019-04-28T12:32:12.483Z,96718.39
2019-04-28T12:34:42.968Z,96718.08
2019-04-28T12:37:13.477Z,96715.87
2019-04-28T12:39:43.888Z,96717.96
2019-04-28T12:42:14.256Z,96709.65
2019-04-28T12:44:44.851Z,96709.29
2019-04-28T12:47:15.294Z,96708.73
2019-04-28T12:49:52.240Z,96697.94
2019-04-28T12:52:22.663Z,96698.84
2019-04-28T12:54:53.104Z,96702.53
2019-04-28T12:57:23.532Z,96704.35
2019-04-28T13:00:03.085Z,96698.09
2019-04-28T13:03:01.706Z,96700.53
2019-04-28T13:05:34.588Z,96698.28
2019-04-28T13:08:05.067Z,96694.89
2019-04-28T13:10:35.553Z,96698.20
2019-04-28T13:13:06.118Z,96689.10
2019-04-28T13:15:36.635Z,96685.56
2019-04-28T13:18:07.185Z,96689.51
2019-04-28T13:20:37.611Z,96687.41
2019-04-28T13:23:08.048Z,96689.77
2019-04-28T13:25:38.509Z,96687.50
2019-04-28T13:28:08.999Z,96687.34
2019-04-28T13:30:39.435Z,96687.66
2019-04-28T13:33:09.860Z,96686.13
2019-04-28T13:35:40.254Z,96677.02
2019-04-28T13:38:10.839Z,96680.09
2019-04-28T13:40:43.522Z,96678.30
2019-04-28T13:43:13.949Z,96679.22
2019-04-28T13:45:44.781Z,96667.55
2019-04-28T13:48:15.306Z,96670.32
2019-04-28T13:50:48.684Z,96669.93
2019-04-28T13:53:17.957Z,96667.22
2019-04-28T13:56:07.307Z,96662.66
2019-04-28T13:58:59.512Z,96667.80
2019-04-28T14:01:48.869Z,96668.91
2019-04-28T14:04:50.752Z,96670.58
2019-04-28T14:07:21.177Z,96670.05
2019-04-28T14:09:51.570Z,96661.84
2019-04-28T14:12:21.915Z,96657.02
2019-04-28T14:14:52.424Z,96657.33
2019-04-28T14:17:22.815Z,96654.56
2019-04-28T14:19:53.478Z,96657.69
2019-04-28T14:22:25.782Z,96651.26
2019-04-28T14:24:56.282Z,96652.97
2019-04-28T14:27:26.754Z,96647.90
2019-04-28T14:29:57.201Z,96645.74
2019-04-28T14:32:27.780Z,96643.42
2019-04-28T14:34:58.150Z,96643.72
2019-04-28T14:37:28.664Z,96640.98
2019-04-28T14:39:59.129Z,96642.72
2019-04-28T14:42:29.562Z,96636.80
2019-04-28T14:45:00.068Z,96649.69
2019-04-28T14:47:30.617Z,96638.59
2019-04-28T14:50:02.745Z,96644.98
2019-04-28T14:52:33.177Z,96646.21
2019-04-28T14:55:03.762Z,96646.45
2019-04-28T14:57:34.268Z,96644.30
2019-04-28T15:00:05.547Z,96639.39
2019-04-28T15:02:48.723Z,96638.42
2019-04-28T15:05:39.072Z,96638.28
2019-04-28T15:08:26.739Z,96638.93
2019-04-28T15:11:02.271Z,96642.23
2019-04-28T15:13:32.672Z,96645.76
2019-04-28T15:16:03.504Z,96642.42
2019-04-28T15:18:33.880Z,96639.55
2019-04-28T15:21:04.298Z,96639.02
2019-04-28T15:23:34.811Z,96632.41
2019-04-28T15:26:05.239Z,96634.53
2019-04-28T15:28:35.820Z,96639.25
2019-04-28T15:31:06.323Z,96643.45
2019-04-28T15:33:36.763Z,96636.66
2019-04-28T15:36:07.223Z,96634.53
2019-04-28T15:38:37.667Z,96634.46
2019-04-28T15:41:20.958Z,96634.58
2019-04-28T15:43:40.293Z,96628.25
2019-04-28T15:46:10.755Z,96625.69
2019-04-28T15:48:41.183Z,96630.35
2019-04-28T15:51:11.716Z,96638.59
2019-04-28T15:53:43.786Z,96641.95
2019-04-28T15:56:37.552Z,96647.12
2019-04-28T15:59:11.384Z,96650.01
2019-04-28T16:01:42.077Z,96649.38
2019-04-28T16:04:12.438Z,96651.52
2019-04-28T16:06:42.847Z,96653.03
2019-04-28T16:09:13.544Z,96649.45
2019-04-28T16:11:44.751Z,96650.81
2019-04-28T16:14:15.258Z,96650.38
2019-04-28T16:16:45.837Z,96651.16
2019-04-28T16:19:16.266Z,96649.08
2019-04-28T16:21:46.719Z,96647.65
2019-04-28T16:24:18.104Z,96652.50
2019-04-28T16:26:48.586Z,96649.41
2019-04-28T16:29:19.231Z,96649.61
2019-04-28T16:31:49.847Z,96644.51
2019-04-28T16:34:20.295Z,96649.25
2019-04-28T16:36:50.715Z,96648.63
2019-04-28T16:39:21.794Z,96652.67
2019-04-28T16:41:56.519Z,96654.56
2019-04-28T16:44:34.500Z,96648.23
2019-04-28T16:47:05.230Z,96647.02
2019-04-28T16:49:35.897Z,96641.08
2019-04-28T16:52:06.921Z,96648.17
2019-04-28T16:54:37.338Z,96651.17
2019-04-28T16:57:32.403Z,96643.14
2019-04-28T17:00:34.946Z,96650.09
2019-04-28T17:03:05.685Z,96654.05
2019-04-28T17:05:36.285Z,96667.25
2019-04-28T17:08:07.022Z,96657.52
2019-04-28T17:10:37.573Z,96670.41
2019-04-28T17:13:14.117Z,96657.81
2019-04-28T17:15:55.603Z,96654.05
2019-04-28T17:18:29.993Z,96653.61
2019-04-28T17:21:00.418Z,96654.46
2019-04-28T17:23:42.290Z,96656.66
2019-04-28T17:26:13.004Z,96650.73
2019-04-28T17:28:43.353Z,96653.55
2019-04-28T17:31:13.972Z,96657.61
2019-04-28T17:33:45.558Z,96656.75
2019-04-28T17:36:16.112Z,96661.99
2019-04-28T17:38:46.597Z,96665.91
2019-04-28T17:41:17.267Z,96667.41
2019-04-28T17:43:47.678Z,96668.03
2019-04-28T17:46:20.454Z,96662.46
2019-04-28T17:48:55.834Z,96669.42
2019-04-28T17:51:33.559Z,96677.89
2019-04-28T17:54:04.072Z,96677.83
2019-04-28T17:56:34.611Z,96676.52
2019-04-28T17:59:05.635Z,96678.20
2019-04-28T18:01:53.559Z,96684.11
2019-04-28T18:04:44.425Z,96685.03
2019-04-28T18:07:19.192Z,96687.59
2019-04-28T18:09:49.511Z,96696.07
2019-04-28T18:12:20.169Z,96700.52
2019-04-28T18:14:52.308Z,96700.35
2019-04-28T18:18:00.499Z,96706.34
2019-04-28T18:20:31.067Z,96711.34
2019-04-28T18:23:01.577Z,96711.89
2019-04-28T18:25:31.971Z,96716.24
2019-04-28T18:28:04.248Z,96722.13
2019-04-28T18:30:37.622Z,96723.79
2019-04-28T18:33:25.908Z,96728.10
2019-04-28T18:36:02.577Z,96734.00
2019-04-28T18:38:54.931Z,96734.92
2019-04-28T18:41:43.481Z,96739.51
2019-04-28T18:44:19.733Z,96752.80
2019-04-28T18:46:50.312Z,96751.98
2019-04-28T18:49:20.909Z,96755.25
2019-04-28T18:51:51.618Z,96753.97
2019-04-28T18:54:22.193Z,96771.34
2019-04-28T18:56:54.556Z,96764.09
2019-04-28T18:59:25.136Z,96771.92
2019-04-28T19:02:17.381Z,96771.27
2019-04-28T19:04:49.501Z,96773.23
2019-04-28T19:07:35.116Z,96783.34
2019-04-28T19:10:12.151Z,96783.68
2019-04-28T19:13:05.108Z,96787.78
2019-04-28T19:15:53.251Z,96787.78
2019-04-28T19:18:28.688Z,96788.98
2019-04-28T19:21:00.212Z,96787.83
2019-04-28T19:23:30.791Z,96791.70
2019-04-28T19:26:01.320Z,96787.34
2019-04-28T19:28:31.833Z,96789.80
2019-04-28T19:31:02.337Z,96792.80
2019-04-28T19:33:32.708Z,96790.17
2019-04-28T19:36:03.208Z,96791.66
2019-04-28T19:38:34.595Z,96795.59
2019-04-28T19:41:05.525Z,96795.62
2019-04-28T19:43:44.297Z,96803.86
2019-04-28T19:46:16.421Z,96803.58
2019-04-28T19:48:49.782Z,96800.01
2019-04-28T19:51:31.106Z,96800.87
2019-04-28T19:53:52.364Z,96804.63
2019-04-28T19:56:40.515Z,96807.45
2019-04-28T19:59:18.719Z,96810.30
2019-04-28T20:01:49.403Z,96812.23
2019-04-28T20:04:19.780Z,96809.70
2019-04-28T20:06:50.106Z,96807.38
2019-04-28T20:09:20.503Z,96807.80
2019-04-28T20:11:50.924Z,96811.09
2019-04-28T20:14:21.229Z,96816.00
2019-04-28T20:16:51.782Z,96816.32
2019-04-28T20:19:22.333Z,96814.44
2019-04-28T20:21:52.926Z,96818.67
2019-04-28T20:24:23.397Z,96817.20
2019-04-28T20:26:53.900Z,96824.56
2019-04-28T20:29:24.354Z,96827.86
2019-04-28T20:31:54.798Z,96829.65
2019-04-28T20:34:25.201Z,96829.51
2019-04-28T20:37:01.261Z,96826.74
2019-04-28T20:39:32.920Z,96824.30
2019-04-28T20:42:21.125Z,96826.25
2019-04-28T20:44:51.609Z,96833.77
2019-04-28T20:47:21.982Z,96831.15
2019-04-28T20:49:52.416Z,96830.02
2019-04-28T20:52:22.817Z,96830.68
2019-04-28T20:54:53.293Z,96832.48
2019-04-28T20:57:23.742Z,96839.03
2019-04-28T20:59:54.311Z,96828.91
2019-04-28T21:02:24.809Z,96837.06
2019-04-28T21:04:55.238Z,96839.66
2019-04-28T21:07:28.254Z,96842.59
2019-04-28T21:09:58.648Z,96841.58
2019-04-28T21:12:29.104Z,96838.97
2019-04-28T21:14:59.469Z,96841.58
2019-04-28T21:17:29.972Z,96841.25
2019-04-28T21:20:00.303Z,96839.50
2019-04-28T21:22:30.768Z,96843.25
2019-04-28T21:25:01.355Z,96848.50
2019-04-28T21:27:31.834Z,96843.23
2019-04-28T21:30:02.309Z,96838.31
2019-04-28T21:32:32.858Z,96834.06
2019-04-28T21:35:04.660Z,96826.91
2019-04-28T21:37:35.097Z,96830.37
2019-04-28T21:40:05.796Z,96836.09
2019-04-28T21:43:01.137Z,96835.05
2019-04-28T21:45:50.829Z,96830.48
2019-04-28T21:48:39.385Z,96835.69
2019-04-28T21:51:11.839Z,96836.73
2019-04-28T21:53:42.159Z,96839.69
2019-04-28T21:56:12.549Z,96834.12
2019-04-28T21:58:42.993Z,96833.94
2019-04-28T22:01:18.289Z,96835.27
2019-04-28T22:03:49.020Z,96835.10
2019-04-28T22:06:19.462Z,96836.56
2019-04-28T22:08:49.948Z,96836.08
2019-04-28T22:11:20.405Z,96838.20
2019-04-28T22:13:50.823Z,96832.97
2019-04-28T22:16:21.255Z,96831.14
2019-04-28T22:18:51.794Z,96840.94
2019-04-28T22:21:22.137Z,96839.64
2019-04-28T22:24:16.329Z,96836.87
2019-04-28T22:26:48.331Z,96830.83
2019-04-28T22:29:18.762Z,96834.74
2019-04-28T22:31:49.235Z,96831.79
2019-04-28T22:34:19.682Z,96833.09
2019-04-28T22:36:50.110Z,96839.29
2019-04-28T22:39:20.564Z,96831.28
2019-04-28T22:41:51.016Z,96832.42
2019-04-28T22:44:21.505Z,96825.23
2019-04-28T22:46:51.968Z,96830.79
2019-04-28T22:49:22.322Z,96827.52
2019-04-28T22:51:52.794Z,96826.55
2019-04-28T22:54:39.234Z,96830.47
2019-04-28T22:57:21.809Z,96828.84
2019-04-28T22:59:52.371Z,96831.13
2019-04-28T23:02:22.942Z,96831.43
2019-04-28T23:05:11.663Z,96828.83
2019-04-28T23:07:42.175Z,96825.88
2019-04-28T23:10:12.773Z,96824.59
2019-04-28T23:12:43.279Z,96828.69
2019-04-28T23:15:14.077Z,96821.33
2019-04-28T23:17:44.590Z,96816.61
2019-04-28T23:20:15.521Z,96817.41
2019-04-28T23:22:48.894Z,96815.30
2019-04-28T23:25:19.430Z,96815.13
2019-04-28T23:27:49.836Z,96814.46
2019-04-28T23:30:44.523Z,96819.69
2019-04-28T23:33:14.885Z,96819.87
2019-04-28T23:35:45.275Z,96814.14
2019-04-28T23:38:15.753Z,96816.73
2019-04-28T23:40:57.297Z,96821.78
2019-04-28T23:43:36.558Z,96822.23
2019-04-28T23:46:07.020Z,96820.94
2019-04-28T23:48:37.366Z,96819.27
2019-04-28T23:51:15.386Z,96821.69
2019-04-28T23:54:03.628Z,96813.19
2019-04-28T23:56:34.023Z,96815.61
2019-04-28T23:59:04.485Z,96815.95
